Dancy, Mississippi
Current Conditions -  °F | °C
As of 6:55 PM on Saturday 22 Nov 2014 (Local Time) from KSTF Reporting Station
Scattered Clouds Scattered Clouds  
Wind Chill: 61°   Ceiling: Unl
Heat Index: 61°   Visibility: NA
Dew Point: 50°   Wind: 6mph
Humidity: 68%   Direction: 140°SE
Pressure: 30.07"   Gusts: NA
Location:  33.6711°N, 89.1329°W
Report Text: KSTF 230055Z AUTO 14005KT SCT039 16/10 A3007 RMK AO2 PWINO
Loading
Personal Weather Stations






























Interactive Weather Map New forecast layout! Learn more

10-Day Weather Forecast

Advertisements
Track Severe Weather on mobile